Flight Number: EUR1439 Duration: 3:00
Departure: Amsterdam Schiphol (EHAM) at 08:15 Distance: 1106 Nm
Arrival: Skiathos (LGSK) at 11:15 Equipment: B737

Weather Information
Amsterdam Airport Schiphol, Netherlands (EHAM) 52-18N 004-46E -2M Jan 21, 2019 - 06:55 AM EST / 2019.01.21 1155 UTC
Wind: from the SW (220 degrees) at 10 MPH (9 KT):0
Visibility: greater than 7 mile(s):0
Sky conditions: mostly clear Temperature: 39 F (4 C) Dew Point: 33 F (1 C) Relative Humidity: 80% Pressure (altimeter): 30.18 in. Hg (1022 hPa)
ob: EHAM 211155Z 22009KT 9999 FEW022 04/01 Q1022 NOSIG cycle: 12
Sunrise: 07:41 Sunset: 16:03 (UTC)

Skiathos Island, Greece (LGSK) 39-11N 023-30E Jan 21, 2019 - 06:50 AM EST / 2019.01.21 1150 UTC
Wind: from the NNW (340 degrees) at 7 MPH (6 KT):0
Visibility: greater than 7 mile(s):0
Sky conditions: mostly clear Temperature: 55 F (13 C) Dew Point: 46 F (8 C) Relative Humidity: 71% Pressure (altimeter): 30.00 in. Hg (1016 hPa)
ob: LGSK 211150Z 34006KT 9999 FEW030 13/08 Q1016 cycle: 12
Sunrise: 05:44 Sunset: 15:30 (UTC)

TAF:2012/09/27 00:18 TAF LGSK 272300Z 2800/2909 01010KT 9999 FEW020

Previous Pireps for this route
Date Aircraft Flight time Fuel used Landing rate On time
2014-10-10B7372.52184140Yes
2015-10-12B73702.5225727-364No
2017-02-21B7373.1023104-304No
(pireps marked green are flown by you)

Route map